sensor_id;sensor_type;location;lat;lon;timestamp;P1;durP1;ratioP1;P2;durP2;ratioP2
47715;SDS011;33476;50.984;3.538;2023-07-20T00:00:58;9.85;;;2.30;;
47715;SDS011;33476;50.984;3.538;2023-07-20T00:03:23;7.32;;;2.60;;
47715;SDS011;33476;50.984;3.538;2023-07-20T00:05:50;7.75;;;2.80;;
47715;SDS011;33476;50.984;3.538;2023-07-20T00:08:18;7.90;;;2.13;;
47715;SDS011;33476;50.984;3.538;2023-07-20T00:10:44;6.18;;;2.38;;
47715;SDS011;33476;50.984;3.538;2023-07-20T00:13:10;6.55;;;2.50;;
47715;SDS011;33476;50.984;3.538;2023-07-20T00:15:36;5.93;;;2.40;;
47715;SDS011;33476;50.984;3.538;2023-07-20T00:18:02;9.55;;;2.42;;
47715;SDS011;33476;50.984;3.538;2023-07-20T00:20:28;10.10;;;2.78;;
47715;SDS011;33476;50.984;3.538;2023-07-20T00:22:54;8.18;;;2.83;;
47715;SDS011;33476;50.984;3.538;2023-07-20T00:25:20;8.27;;;2.92;;
47715;SDS011;33476;50.984;3.538;2023-07-20T00:27:45;11.25;;;3.17;;
47715;SDS011;33476;50.984;3.538;2023-07-20T00:30:11;10.45;;;3.03;;
47715;SDS011;33476;50.984;3.538;2023-07-20T00:32:37;8.95;;;2.83;;
47715;SDS011;33476;50.984;3.538;2023-07-20T00:35:02;11.32;;;3.00;;
47715;SDS011;33476;50.984;3.538;2023-07-20T00:37:27;7.53;;;2.90;;
47715;SDS011;33476;50.984;3.538;2023-07-20T00:39:54;15.02;;;3.20;;
47715;SDS011;33476;50.984;3.538;2023-07-20T00:42:19;8.82;;;2.60;;
47715;SDS011;33476;50.984;3.538;2023-07-20T00:44:44;10.73;;;3.22;;
47715;SDS011;33476;50.984;3.538;2023-07-20T00:47:10;9.82;;;3.10;;
47715;SDS011;33476;50.984;3.538;2023-07-20T00:49:35;9.48;;;2.80;;
47715;SDS011;33476;50.984;3.538;2023-07-20T00:52:02;9.85;;;2.97;;
47715;SDS011;33476;50.984;3.538;2023-07-20T00:54:31;9.18;;;3.42;;
47715;SDS011;33476;50.984;3.538;2023-07-20T00:56:57;7.65;;;3.63;;
47715;SDS011;33476;50.984;3.538;2023-07-20T00:59:23;11.70;;;3.45;;
47715;SDS011;33476;50.984;3.538;2023-07-20T01:01:49;9.25;;;3.03;;
47715;SDS011;33476;50.984;3.538;2023-07-20T01:04:14;8.27;;;2.92;;
47715;SDS011;33476;50.984;3.538;2023-07-20T01:06:48;9.93;;;3.20;;
47715;SDS011;33476;50.984;3.538;2023-07-20T01:14:37;7.25;;;3.40;;
47715;SDS011;33476;50.984;3.538;2023-07-20T01:17:02;9.93;;;3.05;;
47715;SDS011;33476;50.984;3.538;2023-07-20T01:19:29;8.80;;;2.90;;
47715;SDS011;33476;50.984;3.538;2023-07-20T01:27:24;8.05;;;3.00;;
47715;SDS011;33476;50.984;3.538;2023-07-20T01:32:59;6.43;;;2.67;;
47715;SDS011;33476;50.984;3.538;2023-07-20T01:35:28;6.43;;;2.97;;
47715;SDS011;33476;50.984;3.538;2023-07-20T01:37:55;8.95;;;3.50;;
47715;SDS011;33476;50.984;3.538;2023-07-20T01:40:23;8.20;;;3.00;;
47715;SDS011;33476;50.984;3.538;2023-07-20T01:42:52;7.85;;;3.20;;
47715;SDS011;33476;50.984;3.538;2023-07-20T01:45:18;5.07;;;3.15;;
47715;SDS011;33476;50.984;3.538;2023-07-20T01:47:44;8.90;;;3.30;;
47715;SDS011;33476;50.984;3.538;2023-07-20T01:50:09;8.00;;;3.33;;
47715;SDS011;33476;50.984;3.538;2023-07-20T01:52:35;8.18;;;3.33;;
47715;SDS011;33476;50.984;3.538;2023-07-20T01:55:00;7.30;;;2.85;;
47715;SDS011;33476;50.984;3.538;2023-07-20T01:57:26;4.28;;;2.83;;
47715;SDS011;33476;50.984;3.538;2023-07-20T01:59:51;7.18;;;3.15;;
47715;SDS011;33476;50.984;3.538;2023-07-20T02:02:16;5.32;;;3.03;;
47715;SDS011;33476;50.984;3.538;2023-07-20T02:04:43;5.35;;;2.67;;
47715;SDS011;33476;50.984;3.538;2023-07-20T02:07:08;7.15;;;2.78;;
47715;SDS011;33476;50.984;3.538;2023-07-20T02:09:34;10.43;;;3.45;;
47715;SDS011;33476;50.984;3.538;2023-07-20T02:11:59;9.98;;;3.55;;
47715;SDS011;33476;50.984;3.538;2023-07-20T02:14:24;6.22;;;3.53;;
47715;SDS011;33476;50.984;3.538;2023-07-20T02:16:50;5.97;;;3.08;;
47715;SDS011;33476;50.984;3.538;2023-07-20T02:19:22;7.47;;;3.40;;
47715;SDS011;33476;50.984;3.538;2023-07-20T02:21:49;10.50;;;3.88;;
47715;SDS011;33476;50.984;3.538;2023-07-20T02:24:15;8.13;;;3.70;;
47715;SDS011;33476;50.984;3.538;2023-07-20T02:26:40;8.10;;;3.60;;
47715;SDS011;33476;50.984;3.538;2023-07-20T02:29:05;7.13;;;3.63;;
47715;SDS011;33476;50.984;3.538;2023-07-20T02:31:31;8.02;;;3.35;;
47715;SDS011;33476;50.984;3.538;2023-07-20T02:33:56;7.25;;;3.35;;
47715;SDS011;33476;50.984;3.538;2023-07-20T02:36:21;7.13;;;3.33;;
47715;SDS011;33476;50.984;3.538;2023-07-20T02:38:47;8.07;;;3.90;;
47715;SDS011;33476;50.984;3.538;2023-07-20T02:41:13;5.90;;;3.50;;
47715;SDS011;33476;50.984;3.538;2023-07-20T02:43:38;6.60;;;3.08;;
47715;SDS011;33476;50.984;3.538;2023-07-20T02:46:03;5.00;;;3.40;;
47715;SDS011;33476;50.984;3.538;2023-07-20T02:48:29;8.68;;;2.67;;
47715;SDS011;33476;50.984;3.538;2023-07-20T02:50:54;9.48;;;3.50;;
47715;SDS011;33476;50.984;3.538;2023-07-20T02:53:20;8.25;;;3.60;;
47715;SDS011;33476;50.984;3.538;2023-07-20T02:55:45;8.73;;;3.63;;
47715;SDS011;33476;50.984;3.538;2023-07-20T02:58:11;6.00;;;3.83;;
47715;SDS011;33476;50.984;3.538;2023-07-20T03:00:36;7.65;;;3.47;;
47715;SDS011;33476;50.984;3.538;2023-07-20T03:03:01;8.05;;;4.15;;
47715;SDS011;33476;50.984;3.538;2023-07-20T03:05:27;6.18;;;3.28;;
47715;SDS011;33476;50.984;3.538;2023-07-20T03:07:53;9.38;;;4.05;;
47715;SDS011;33476;50.984;3.538;2023-07-20T03:10:18;9.05;;;3.80;;
47715;SDS011;33476;50.984;3.538;2023-07-20T03:12:44;6.90;;;3.63;;
47715;SDS011;33476;50.984;3.538;2023-07-20T03:15:09;5.63;;;3.50;;
47715;SDS011;33476;50.984;3.538;2023-07-20T03:17:35;10.07;;;3.75;;
47715;SDS011;33476;50.984;3.538;2023-07-20T03:20:00;6.85;;;3.60;;
47715;SDS011;33476;50.984;3.538;2023-07-20T03:22:26;10.18;;;4.03;;
47715;SDS011;33476;50.984;3.538;2023-07-20T03:24:51;7.35;;;3.92;;
47715;SDS011;33476;50.984;3.538;2023-07-20T03:27:17;6.45;;;3.95;;
47715;SDS011;33476;50.984;3.538;2023-07-20T03:29:43;6.13;;;3.70;;
47715;SDS011;33476;50.984;3.538;2023-07-20T03:32:09;7.95;;;3.95;;
47715;SDS011;33476;50.984;3.538;2023-07-20T03:34:35;9.10;;;4.20;;
47715;SDS011;33476;50.984;3.538;2023-07-20T03:37:00;6.72;;;3.67;;
47715;SDS011;33476;50.984;3.538;2023-07-20T03:39:26;5.85;;;4.03;;
47715;SDS011;33476;50.984;3.538;2023-07-20T03:41:51;9.05;;;3.95;;
47715;SDS011;33476;50.984;3.538;2023-07-20T03:44:17;7.57;;;4.03;;
47715;SDS011;33476;50.984;3.538;2023-07-20T03:46:42;7.63;;;4.40;;
47715;SDS011;33476;50.984;3.538;2023-07-20T03:49:08;6.65;;;4.15;;
47715;SDS011;33476;50.984;3.538;2023-07-20T03:51:34;8.52;;;4.10;;
47715;SDS011;33476;50.984;3.538;2023-07-20T03:54:00;7.07;;;4.30;;
47715;SDS011;33476;50.984;3.538;2023-07-20T03:56:25;9.27;;;4.15;;
47715;SDS011;33476;50.984;3.538;2023-07-20T03:58:51;7.20;;;4.10;;
47715;SDS011;33476;50.984;3.538;2023-07-20T04:01:16;11.25;;;4.43;;
47715;SDS011;33476;50.984;3.538;2023-07-20T04:03:42;9.25;;;4.00;;
47715;SDS011;33476;50.984;3.538;2023-07-20T04:06:08;8.73;;;4.70;;
47715;SDS011;33476;50.984;3.538;2023-07-20T04:08:33;6.50;;;4.10;;
47715;SDS011;33476;50.984;3.538;2023-07-20T04:11:00;7.22;;;3.83;;
47715;SDS011;33476;50.984;3.538;2023-07-20T04:13:26;4.63;;;3.40;;
47715;SDS011;33476;50.984;3.538;2023-07-20T04:15:53;8.95;;;4.25;;
47715;SDS011;33476;50.984;3.538;2023-07-20T04:18:18;5.45;;;3.67;;
47715;SDS011;33476;50.984;3.538;2023-07-20T04:20:43;8.80;;;4.03;;
47715;SDS011;33476;50.984;3.538;2023-07-20T04:23:09;7.10;;;4.22;;
47715;SDS011;33476;50.984;3.538;2023-07-20T04:25:34;5.28;;;4.03;;
47715;SDS011;33476;50.984;3.538;2023-07-20T04:28:04;6.72;;;4.60;;
47715;SDS011;33476;50.984;3.538;2023-07-20T04:30:29;9.18;;;4.47;;
47715;SDS011;33476;50.984;3.538;2023-07-20T04:32:55;4.85;;;3.97;;
47715;SDS011;33476;50.984;3.538;2023-07-20T04:38:10;9.45;;;4.35;;
47715;SDS011;33476;50.984;3.538;2023-07-20T04:40:36;6.63;;;4.30;;
47715;SDS011;33476;50.984;3.538;2023-07-20T04:43:01;5.85;;;4.05;;
47715;SDS011;33476;50.984;3.538;2023-07-20T04:45:26;8.10;;;4.53;;
47715;SDS011;33476;50.984;3.538;2023-07-20T04:47:52;8.07;;;4.47;;
47715;SDS011;33476;50.984;3.538;2023-07-20T04:50:17;7.50;;;4.60;;
47715;SDS011;33476;50.984;3.538;2023-07-20T04:52:42;6.60;;;4.10;;
47715;SDS011;33476;50.984;3.538;2023-07-20T04:55:08;8.30;;;4.32;;
47715;SDS011;33476;50.984;3.538;2023-07-20T04:57:34;6.43;;;4.25;;
47715;SDS011;33476;50.984;3.538;2023-07-20T04:59:59;7.68;;;4.32;;
47715;SDS011;33476;50.984;3.538;2023-07-20T05:02:24;12.13;;;5.00;;
47715;SDS011;33476;50.984;3.538;2023-07-20T05:04:50;4.82;;;4.22;;
47715;SDS011;33476;50.984;3.538;2023-07-20T05:07:15;11.77;;;4.72;;
47715;SDS011;33476;50.984;3.538;2023-07-20T05:09:40;10.18;;;4.82;;
47715;SDS011;33476;50.984;3.538;2023-07-20T05:12:06;7.63;;;4.57;;
47715;SDS011;33476;50.984;3.538;2023-07-20T05:14:32;7.50;;;4.60;;
47715;SDS011;33476;50.984;3.538;2023-07-20T05:16:57;6.13;;;4.30;;
47715;SDS011;33476;50.984;3.538;2023-07-20T05:19:24;7.07;;;4.10;;
47715;SDS011;33476;50.984;3.538;2023-07-20T05:21:50;7.88;;;4.07;;
47715;SDS011;33476;50.984;3.538;2023-07-20T05:24:15;5.32;;;4.32;;
47715;SDS011;33476;50.984;3.538;2023-07-20T05:26:40;5.40;;;4.13;;
47715;SDS011;33476;50.984;3.538;2023-07-20T05:29:05;9.45;;;4.80;;
47715;SDS011;33476;50.984;3.538;2023-07-20T05:31:31;7.80;;;4.53;;
47715;SDS011;33476;50.984;3.538;2023-07-20T05:33:56;5.22;;;4.10;;
47715;SDS011;33476;50.984;3.538;2023-07-20T05:36:22;7.35;;;4.22;;
47715;SDS011;33476;50.984;3.538;2023-07-20T05:38:47;5.47;;;4.97;;
47715;SDS011;33476;50.984;3.538;2023-07-20T05:41:14;9.07;;;4.40;;
47715;SDS011;33476;50.984;3.538;2023-07-20T05:43:39;7.53;;;3.88;;
47715;SDS011;33476;50.984;3.538;2023-07-20T05:46:04;7.40;;;4.38;;
47715;SDS011;33476;50.984;3.538;2023-07-20T05:48:30;8.20;;;4.90;;
47715;SDS011;33476;50.984;3.538;2023-07-20T05:50:55;5.93;;;4.15;;
47715;SDS011;33476;50.984;3.538;2023-07-20T05:53:21;4.75;;;3.55;;
47715;SDS011;33476;50.984;3.538;2023-07-20T05:55:51;4.03;;;3.63;;
47715;SDS011;33476;50.984;3.538;2023-07-20T05:58:17;7.97;;;3.63;;
47715;SDS011;33476;50.984;3.538;2023-07-20T06:00:43;5.35;;;3.78;;
47715;SDS011;33476;50.984;3.538;2023-07-20T06:03:08;3.55;;;3.25;;
47715;SDS011;33476;50.984;3.538;2023-07-20T06:05:34;5.25;;;3.50;;
47715;SDS011;33476;50.984;3.538;2023-07-20T06:07:59;8.38;;;3.75;;
47715;SDS011;33476;50.984;3.538;2023-07-20T06:10:25;8.52;;;3.72;;
47715;SDS011;33476;50.984;3.538;2023-07-20T06:12:51;5.78;;;3.88;;
47715;SDS011;33476;50.984;3.538;2023-07-20T06:15:31;5.35;;;3.40;;
47715;SDS011;33476;50.984;3.538;2023-07-20T06:17:59;4.28;;;3.28;;
47715;SDS011;33476;50.984;3.538;2023-07-20T06:20:25;3.92;;;2.55;;
47715;SDS011;33476;50.984;3.538;2023-07-20T06:22:51;3.03;;;2.50;;
47715;SDS011;33476;50.984;3.538;2023-07-20T06:25:16;3.58;;;2.42;;
47715;SDS011;33476;50.984;3.538;2023-07-20T06:27:42;4.55;;;2.15;;
47715;SDS011;33476;50.984;3.538;2023-07-20T06:30:07;4.03;;;2.20;;
47715;SDS011;33476;50.984;3.538;2023-07-20T06:32:33;3.92;;;1.98;;
47715;SDS011;33476;50.984;3.538;2023-07-20T06:34:58;2.47;;;1.65;;
47715;SDS011;33476;50.984;3.538;2023-07-20T06:37:24;3.03;;;1.80;;
47715;SDS011;33476;50.984;3.538;2023-07-20T06:39:49;3.63;;;2.10;;
47715;SDS011;33476;50.984;3.538;2023-07-20T06:42:15;2.65;;;2.28;;
47715;SDS011;33476;50.984;3.538;2023-07-20T06:44:40;3.28;;;1.95;;
47715;SDS011;33476;50.984;3.538;2023-07-20T06:47:05;2.58;;;1.25;;
47715;SDS011;33476;50.984;3.538;2023-07-20T06:49:31;4.45;;;1.30;;
47715;SDS011;33476;50.984;3.538;2023-07-20T06:51:56;2.22;;;1.08;;
47715;SDS011;33476;50.984;3.538;2023-07-20T06:54:22;3.60;;;1.23;;
47715;SDS011;33476;50.984;3.538;2023-07-20T06:56:47;1.77;;;1.05;;
47715;SDS011;33476;50.984;3.538;2023-07-20T06:59:12;2.30;;;1.17;;
47715;SDS011;33476;50.984;3.538;2023-07-20T07:01:38;1.38;;;1.10;;
47715;SDS011;33476;50.984;3.538;2023-07-20T07:04:04;3.05;;;0.80;;
47715;SDS011;33476;50.984;3.538;2023-07-20T07:06:30;1.38;;;0.57;;
47715;SDS011;33476;50.984;3.538;2023-07-20T07:08:56;3.00;;;0.63;;
47715;SDS011;33476;50.984;3.538;2023-07-20T07:11:21;1.25;;;0.60;;
47715;SDS011;33476;50.984;3.538;2023-07-20T07:13:47;2.13;;;0.40;;
47715;SDS011;33476;50.984;3.538;2023-07-20T07:16:15;1.40;;;0.50;;
47715;SDS011;33476;50.984;3.538;2023-07-20T07:18:43;1.77;;;0.40;;
47715;SDS011;33476;50.984;3.538;2023-07-20T07:21:09;1.63;;;0.32;;
47715;SDS011;33476;50.984;3.538;2023-07-20T07:23:35;1.40;;;0.38;;
47715;SDS011;33476;50.984;3.538;2023-07-20T07:26:00;1.60;;;0.43;;
47715;SDS011;33476;50.984;3.538;2023-07-20T07:28:25;2.42;;;0.52;;
47715;SDS011;33476;50.984;3.538;2023-07-20T07:30:51;1.45;;;0.45;;
47715;SDS011;33476;50.984;3.538;2023-07-20T07:33:16;1.00;;;0.30;;
47715;SDS011;33476;50.984;3.538;2023-07-20T07:35:41;0.40;;;0.20;;
47715;SDS011;33476;50.984;3.538;2023-07-20T07:38:07;0.40;;;0.20;;
47715;SDS011;33476;50.984;3.538;2023-07-20T07:40:32;0.80;;;0.20;;
47715;SDS011;33476;50.984;3.538;2023-07-20T07:42:58;0.50;;;0.20;;
47715;SDS011;33476;50.984;3.538;2023-07-20T07:45:23;0.45;;;0.30;;
47715;SDS011;33476;50.984;3.538;2023-07-20T07:47:48;0.52;;;0.32;;
47715;SDS011;33476;50.984;3.538;2023-07-20T07:50:14;1.27;;;0.20;;
47715;SDS011;33476;50.984;3.538;2023-07-20T07:52:39;1.17;;;0.30;;
47715;SDS011;33476;50.984;3.538;2023-07-20T07:55:05;0.75;;;0.30;;
47715;SDS011;33476;50.984;3.538;2023-07-20T07:57:30;0.75;;;0.30;;
47715;SDS011;33476;50.984;3.538;2023-07-20T07:59:56;1.38;;;0.30;;
47715;SDS011;33476;50.984;3.538;2023-07-20T08:02:21;0.57;;;0.20;;
47715;SDS011;33476;50.984;3.538;2023-07-20T08:04:47;2.95;;;0.20;;
47715;SDS011;33476;50.984;3.538;2023-07-20T08:07:12;1.70;;;0.30;;
47715;SDS011;33476;50.984;3.538;2023-07-20T08:09:37;1.90;;;0.32;;
47715;SDS011;33476;50.984;3.538;2023-07-20T08:12:03;1.33;;;0.38;;
47715;SDS011;33476;50.984;3.538;2023-07-20T08:14:29;1.27;;;0.30;;
47715;SDS011;33476;50.984;3.538;2023-07-20T08:16:54;2.67;;;0.50;;
47715;SDS011;33476;50.984;3.538;2023-07-20T08:19:19;1.80;;;0.50;;
47715;SDS011;33476;50.984;3.538;2023-07-20T08:21:45;1.92;;;0.30;;
47715;SDS011;33476;50.984;3.538;2023-07-20T08:24:10;1.65;;;0.30;;
47715;SDS011;33476;50.984;3.538;2023-07-20T08:26:35;0.90;;;0.50;;
47715;SDS011;33476;50.984;3.538;2023-07-20T08:29:01;2.42;;;0.60;;
47715;SDS011;33476;50.984;3.538;2023-07-20T08:31:26;2.13;;;0.50;;
47715;SDS011;33476;50.984;3.538;2023-07-20T08:33:53;0.77;;;0.40;;
47715;SDS011;33476;50.984;3.538;2023-07-20T08:36:18;1.15;;;0.25;;
47715;SDS011;33476;50.984;3.538;2023-07-20T08:38:44;1.05;;;0.50;;
47715;SDS011;33476;50.984;3.538;2023-07-20T08:41:09;1.52;;;0.45;;
47715;SDS011;33476;50.984;3.538;2023-07-20T08:43:34;1.42;;;0.30;;
47715;SDS011;33476;50.984;3.538;2023-07-20T08:46:04;1.02;;;0.30;;
47715;SDS011;33476;50.984;3.538;2023-07-20T08:48:30;2.05;;;0.30;;
47715;SDS011;33476;50.984;3.538;2023-07-20T08:50:56;1.00;;;0.30;;
47715;SDS011;33476;50.984;3.538;2023-07-20T08:53:23;3.65;;;0.50;;
47715;SDS011;33476;50.984;3.538;2023-07-20T08:55:49;2.13;;;0.30;;
47715;SDS011;33476;50.984;3.538;2023-07-20T08:58:16;0.88;;;0.40;;
47715;SDS011;33476;50.984;3.538;2023-07-20T09:00:42;1.00;;;0.50;;
47715;SDS011;33476;50.984;3.538;2023-07-20T09:03:08;1.65;;;0.20;;
47715;SDS011;33476;50.984;3.538;2023-07-20T09:05:36;2.03;;;0.35;;
47715;SDS011;33476;50.984;3.538;2023-07-20T09:08:01;3.03;;;0.25;;
47715;SDS011;33476;50.984;3.538;2023-07-20T09:10:30;1.25;;;0.30;;
47715;SDS011;33476;50.984;3.538;2023-07-20T09:12:55;1.40;;;0.60;;
47715;SDS011;33476;50.984;3.538;2023-07-20T09:15:21;0.70;;;0.40;;
47715;SDS011;33476;50.984;3.538;2023-07-20T09:17:47;2.90;;;0.20;;
47715;SDS011;33476;50.984;3.538;2023-07-20T09:20:16;1.17;;;0.30;;
47715;SDS011;33476;50.984;3.538;2023-07-20T09:22:43;1.10;;;0.40;;
47715;SDS011;33476;50.984;3.538;2023-07-20T09:25:13;2.08;;;0.22;;
47715;SDS011;33476;50.984;3.538;2023-07-20T09:27:40;1.73;;;0.40;;
47715;SDS011;33476;50.984;3.538;2023-07-20T09:30:07;0.80;;;0.40;;
47715;SDS011;33476;50.984;3.538;2023-07-20T09:32:40;0.75;;;0.28;;
47715;SDS011;33476;50.984;3.538;2023-07-20T09:35:17;1.17;;;0.22;;
47715;SDS011;33476;50.984;3.538;2023-07-20T09:37:47;1.90;;;0.28;;
47715;SDS011;33476;50.984;3.538;2023-07-20T09:40:17;3.13;;;0.35;;
47715;SDS011;33476;50.984;3.538;2023-07-20T09:42:43;0.93;;;0.40;;
47715;SDS011;33476;50.984;3.538;2023-07-20T09:45:08;0.77;;;0.30;;
47715;SDS011;33476;50.984;3.538;2023-07-20T09:47:38;0.65;;;0.20;;
47715;SDS011;33476;50.984;3.538;2023-07-20T09:50:04;0.63;;;0.20;;
47715;SDS011;33476;50.984;3.538;2023-07-20T09:52:35;2.83;;;0.30;;
47715;SDS011;33476;50.984;3.538;2023-07-20T09:55:03;1.48;;;0.20;;
47715;SDS011;33476;50.984;3.538;2023-07-20T09:57:28;1.67;;;0.30;;
47715;SDS011;33476;50.984;3.538;2023-07-20T09:59:54;1.67;;;0.30;;
47715;SDS011;33476;50.984;3.538;2023-07-20T10:02:20;1.30;;;0.20;;
47715;SDS011;33476;50.984;3.538;2023-07-20T10:04:50;0.60;;;0.10;;
47715;SDS011;33476;50.984;3.538;2023-07-20T10:07:18;1.02;;;0.10;;
47715;SDS011;33476;50.984;3.538;2023-07-20T10:09:47;0.77;;;0.10;;
47715;SDS011;33476;50.984;3.538;2023-07-20T10:12:13;1.23;;;0.10;;
47715;SDS011;33476;50.984;3.538;2023-07-20T10:14:41;1.70;;;0.20;;
47715;SDS011;33476;50.984;3.538;2023-07-20T10:17:15;1.33;;;0.10;;
47715;SDS011;33476;50.984;3.538;2023-07-20T10:19:43;1.23;;;0.20;;
47715;SDS011;33476;50.984;3.538;2023-07-20T10:22:17;1.13;;;0.20;;
47715;SDS011;33476;50.984;3.538;2023-07-20T10:24:48;0.80;;;0.28;;
47715;SDS011;33476;50.984;3.538;2023-07-20T10:27:14;0.57;;;0.20;;
47715;SDS011;33476;50.984;3.538;2023-07-20T10:29:40;0.63;;;0.10;;
47715;SDS011;33476;50.984;3.538;2023-07-20T10:32:07;0.88;;;0.15;;
47715;SDS011;33476;50.984;3.538;2023-07-20T10:34:34;0.77;;;0.35;;
47715;SDS011;33476;50.984;3.538;2023-07-20T10:36:59;4.38;;;0.38;;
47715;SDS011;33476;50.984;3.538;2023-07-20T10:39:25;1.13;;;0.40;;
47715;SDS011;33476;50.984;3.538;2023-07-20T10:44:33;0.82;;;0.40;;
47715;SDS011;33476;50.984;3.538;2023-07-20T10:46:59;0.73;;;0.20;;
47715;SDS011;33476;50.984;3.538;2023-07-20T10:49:26;1.27;;;0.30;;
47715;SDS011;33476;50.984;3.538;2023-07-20T10:51:56;2.00;;;0.40;;
47715;SDS011;33476;50.984;3.538;2023-07-20T10:56:49;3.92;;;0.30;;
47715;SDS011;33476;50.984;3.538;2023-07-20T10:59:48;0.65;;;0.30;;
47715;SDS011;33476;50.984;3.538;2023-07-20T11:02:06;2.63;;;0.40;;
47715;SDS011;33476;50.984;3.538;2023-07-20T11:07:08;6.45;;;0.40;;
47715;SDS011;33476;50.984;3.538;2023-07-20T11:09:34;5.25;;;0.52;;
47715;SDS011;33476;50.984;3.538;2023-07-20T11:14:39;3.00;;;0.47;;
47715;SDS011;33476;50.984;3.538;2023-07-20T11:17:21;1.08;;;0.30;;
47715;SDS011;33476;50.984;3.538;2023-07-20T11:19:57;1.45;;;0.50;;
47715;SDS011;33476;50.984;3.538;2023-07-20T11:22:25;1.00;;;0.40;;
47715;SDS011;33476;50.984;3.538;2023-07-20T11:24:54;1.80;;;0.63;;
47715;SDS011;33476;50.984;3.538;2023-07-20T11:27:20;1.75;;;0.20;;
47715;SDS011;33476;50.984;3.538;2023-07-20T11:29:47;0.73;;;0.40;;
47715;SDS011;33476;50.984;3.538;2023-07-20T11:32:13;3.75;;;0.55;;
47715;SDS011;33476;50.984;3.538;2023-07-20T11:34:46;0.63;;;0.28;;
47715;SDS011;33476;50.984;3.538;2023-07-20T11:37:12;1.02;;;0.40;;
47715;SDS011;33476;50.984;3.538;2023-07-20T11:39:38;3.08;;;0.40;;
47715;SDS011;33476;50.984;3.538;2023-07-20T11:42:03;1.58;;;0.50;;
47715;SDS011;33476;50.984;3.538;2023-07-20T11:44:30;0.85;;;0.30;;
47715;SDS011;33476;50.984;3.538;2023-07-20T11:47:14;1.23;;;0.40;;
47715;SDS011;33476;50.984;3.538;2023-07-20T11:49:43;1.67;;;0.40;;
47715;SDS011;33476;50.984;3.538;2023-07-20T11:52:14;1.08;;;0.60;;
47715;SDS011;33476;50.984;3.538;2023-07-20T11:54:42;1.52;;;0.50;;
47715;SDS011;33476;50.984;3.538;2023-07-20T11:57:26;1.25;;;0.50;;
47715;SDS011;33476;50.984;3.538;2023-07-20T11:59:55;1.17;;;0.40;;
47715;SDS011;33476;50.984;3.538;2023-07-20T12:04:47;3.90;;;0.82;;
47715;SDS011;33476;50.984;3.538;2023-07-20T12:07:13;2.17;;;0.52;;
47715;SDS011;33476;50.984;3.538;2023-07-20T12:09:39;5.22;;;0.85;;
47715;SDS011;33476;50.984;3.538;2023-07-20T12:12:09;2.22;;;0.50;;
47715;SDS011;33476;50.984;3.538;2023-07-20T12:14:37;0.80;;;0.30;;
47715;SDS011;33476;50.984;3.538;2023-07-20T12:17:02;1.02;;;0.32;;
47715;SDS011;33476;50.984;3.538;2023-07-20T12:19:28;0.85;;;0.35;;
47715;SDS011;33476;50.984;3.538;2023-07-20T12:21:56;1.85;;;0.30;;
47715;SDS011;33476;50.984;3.538;2023-07-20T12:24:24;1.17;;;0.40;;
47715;SDS011;33476;50.984;3.538;2023-07-20T12:26:55;1.30;;;0.30;;
47715;SDS011;33476;50.984;3.538;2023-07-20T12:29:24;0.80;;;0.20;;
47715;SDS011;33476;50.984;3.538;2023-07-20T12:31:49;1.10;;;0.40;;
47715;SDS011;33476;50.984;3.538;2023-07-20T12:34:15;1.10;;;0.30;;
47715;SDS011;33476;50.984;3.538;2023-07-20T12:36:40;0.75;;;0.25;;
47715;SDS011;33476;50.984;3.538;2023-07-20T12:39:05;1.25;;;0.20;;
47715;SDS011;33476;50.984;3.538;2023-07-20T12:41:31;1.13;;;0.43;;
47715;SDS011;33476;50.984;3.538;2023-07-20T12:43:56;0.75;;;0.20;;
47715;SDS011;33476;50.984;3.538;2023-07-20T12:46:23;1.17;;;0.20;;
47715;SDS011;33476;50.984;3.538;2023-07-20T12:48:49;0.93;;;0.30;;
47715;SDS011;33476;50.984;3.538;2023-07-20T12:51:14;0.40;;;0.10;;
47715;SDS011;33476;50.984;3.538;2023-07-20T12:53:40;1.05;;;0.20;;
47715;SDS011;33476;50.984;3.538;2023-07-20T12:56:05;2.15;;;0.20;;
47715;SDS011;33476;50.984;3.538;2023-07-20T12:58:31;0.95;;;0.10;;
47715;SDS011;33476;50.984;3.538;2023-07-20T13:00:57;0.85;;;0.28;;
47715;SDS011;33476;50.984;3.538;2023-07-20T13:03:22;1.25;;;0.20;;
47715;SDS011;33476;50.984;3.538;2023-07-20T13:05:48;0.60;;;0.20;;
47715;SDS011;33476;50.984;3.538;2023-07-20T13:08:14;1.10;;;0.20;;
47715;SDS011;33476;50.984;3.538;2023-07-20T13:10:40;1.05;;;0.30;;
47715;SDS011;33476;50.984;3.538;2023-07-20T13:13:06;1.05;;;0.20;;
47715;SDS011;33476;50.984;3.538;2023-07-20T13:15:32;0.63;;;0.30;;
47715;SDS011;33476;50.984;3.538;2023-07-20T13:18:05;0.88;;;0.20;;
47715;SDS011;33476;50.984;3.538;2023-07-20T13:20:30;1.77;;;0.30;;
47715;SDS011;33476;50.984;3.538;2023-07-20T13:22:56;1.85;;;0.30;;
47715;SDS011;33476;50.984;3.538;2023-07-20T13:25:21;1.88;;;0.20;;
47715;SDS011;33476;50.984;3.538;2023-07-20T13:27:46;0.63;;;0.13;;
47715;SDS011;33476;50.984;3.538;2023-07-20T13:30:12;4.10;;;0.30;;
47715;SDS011;33476;50.984;3.538;2023-07-20T13:32:41;0.90;;;0.30;;
47715;SDS011;33476;50.984;3.538;2023-07-20T13:35:08;9.52;;;2.20;;
47715;SDS011;33476;50.984;3.538;2023-07-20T13:37:33;4.53;;;1.20;;
47715;SDS011;33476;50.984;3.538;2023-07-20T13:39:59;2.50;;;0.60;;
47715;SDS011;33476;50.984;3.538;2023-07-20T13:42:24;1.27;;;0.55;;
47715;SDS011;33476;50.984;3.538;2023-07-20T13:44:49;2.53;;;0.85;;
47715;SDS011;33476;50.984;3.538;2023-07-20T13:47:15;1.35;;;0.32;;
47715;SDS011;33476;50.984;3.538;2023-07-20T13:49:40;1.65;;;0.43;;
47715;SDS011;33476;50.984;3.538;2023-07-20T13:52:06;2.13;;;0.77;;
47715;SDS011;33476;50.984;3.538;2023-07-20T13:54:31;3.13;;;0.75;;
47715;SDS011;33476;50.984;3.538;2023-07-20T13:56:56;3.38;;;0.60;;
47715;SDS011;33476;50.984;3.538;2023-07-20T13:59:22;2.75;;;1.00;;
47715;SDS011;33476;50.984;3.538;2023-07-20T14:01:48;5.53;;;1.50;;
47715;SDS011;33476;50.984;3.538;2023-07-20T14:04:14;8.52;;;2.88;;
47715;SDS011;33476;50.984;3.538;2023-07-20T14:06:40;6.57;;;3.05;;
47715;SDS011;33476;50.984;3.538;2023-07-20T14:09:05;3.20;;;2.35;;
47715;SDS011;33476;50.984;3.538;2023-07-20T14:11:31;6.32;;;2.80;;
47715;SDS011;33476;50.984;3.538;2023-07-20T14:13:56;2.67;;;2.30;;
47715;SDS011;33476;50.984;3.538;2023-07-20T14:16:23;3.45;;;2.83;;
47715;SDS011;33476;50.984;3.538;2023-07-20T14:18:49;6.43;;;3.17;;
47715;SDS011;33476;50.984;3.538;2023-07-20T14:21:15;5.85;;;3.40;;
47715;SDS011;33476;50.984;3.538;2023-07-20T14:23:42;5.38;;;3.25;;
47715;SDS011;33476;50.984;3.538;2023-07-20T14:26:09;3.63;;;2.70;;
47715;SDS011;33476;50.984;3.538;2023-07-20T14:28:35;3.35;;;2.95;;
47715;SDS011;33476;50.984;3.538;2023-07-20T14:31:00;3.72;;;2.90;;
47715;SDS011;33476;50.984;3.538;2023-07-20T14:33:25;3.33;;;3.00;;
47715;SDS011;33476;50.984;3.538;2023-07-20T14:35:51;5.47;;;2.90;;
47715;SDS011;33476;50.984;3.538;2023-07-20T14:38:16;3.42;;;2.83;;
47715;SDS011;33476;50.984;3.538;2023-07-20T14:40:44;3.10;;;2.80;;
47715;SDS011;33476;50.984;3.538;2023-07-20T14:43:10;3.72;;;2.58;;
47715;SDS011;33476;50.984;3.538;2023-07-20T14:45:36;3.30;;;3.00;;
47715;SDS011;33476;50.984;3.538;2023-07-20T14:48:03;3.53;;;2.40;;
47715;SDS011;33476;50.984;3.538;2023-07-20T14:50:29;3.28;;;2.72;;
47715;SDS011;33476;50.984;3.538;2023-07-20T14:52:54;3.42;;;3.08;;
47715;SDS011;33476;50.984;3.538;2023-07-20T14:55:19;3.50;;;3.20;;
47715;SDS011;33476;50.984;3.538;2023-07-20T14:57:45;4.55;;;3.20;;
47715;SDS011;33476;50.984;3.538;2023-07-20T15:00:10;3.85;;;2.95;;
47715;SDS011;33476;50.984;3.538;2023-07-20T15:02:36;2.55;;;2.33;;
47715;SDS011;33476;50.984;3.538;2023-07-20T15:05:02;2.95;;;2.55;;
47715;SDS011;33476;50.984;3.538;2023-07-20T15:07:28;5.15;;;2.70;;
47715;SDS011;33476;50.984;3.538;2023-07-20T15:09:53;3.50;;;3.05;;
47715;SDS011;33476;50.984;3.538;2023-07-20T15:12:18;4.53;;;3.05;;